map of FSS home
FSS - Airport
Location
City:  Forres, Morayshire, Scotland, United Kingdom
Name:RAF Kinloss
ICAO:EGQK
IATA:FSS

Details
Type:Airport (Aerodrome, Airfield)
Use:Military, International (customs port of entry)
Latitude:5738'58"N (57.649386)
Longitude:333'38"W (-3.560635)
Datum:WGS 1984
Elevation:22 ft (7 m)
Variation:2.26W (WMM2015v2 magnetic declination)
0.23 annual change
Runways:1
Longest:7582 × 151 ft (2311 × 46 m), paved

Time
Time Zone:UTC+0 (DST+1)
Local Time:

Weather
METAR:EGQK 041350Z 26019KT 9999 SCT027 05/02 Q1008 BLU

Related Locations
Nearby:
Farthest:SZS: 11610 mi / 18684 km
Ryan's Creek, Stewart Island, STL, NZ

Find:

   beyond  
but within

Other Information
Maps:
NOTAMs:
Links:
Sources:

  
  • flag of United Kingdom
  • flag of Scotland
  • flag of Royal Air Force
  

Airport Diagram

Airport diagram for FSS

Larger airport diagram (OBSOLETE) from NGA

Sectional Chart

Flight Planning
at skyvector.com

Satellite Image

Google Maps Satellite view

 

Copyright © 2004-2019 Karl L. Swartz. All rights reserved.
The Great Circle Mapper name and logo are trademarks of the Great Circle Mapper.
All other trademarks mentioned herein belong to their respective owners.
Please see credits for attibutions and further copyright information.

  Follow gcmap on Facebook Follow gcmap on Twitter GCmap on LinkedIn

hCard Microformat

Geo Microformat